LRI222 SKBO-SVMI
Flight info
| Callsign | LRI222 |
|---|---|
| Flight time | 3h 17m |
| Altitude | 11500 |
| Route | OSUSU4R KOVBU DCT UMPEX DCT BUVOR DCT ATEXA DCT PBL ALDAK1 |
| Aircraft | DC3/M-SDF/S |
Departure
| Time | 2025-10-09 11:56 |
|---|---|
| Airport | El Dorado International Airport (SKBO) |
Arrival
| Time | 2025-10-09 15:14 |
|---|---|
| Airport | Maiquetía Simón Bolívar International Airport (SVMI) |
| Time | Latitude | Longitude | Altitude | Speed | Heading |
|---|---|---|---|---|---|
| 2025-10-09 11:49 | 4.70160 | -74.14694 | 8369 ft | 0 kts | 206° |
| 2025-10-09 11:51 | 4.71023 | -74.16872 | 8369 ft | 0 kts | 127° |
| 2025-10-09 11:53 | 4.70958 | -74.16786 | 8369 ft | 38 kts | 127° |
| 2025-10-09 11:53 | 4.70335 | -74.15967 | 8370 ft | 101 kts | 127° |
| 2025-10-09 11:54 | 4.69432 | -74.14791 | 8652 ft | 109 kts | 123° |
| 2025-10-09 11:54 | 4.69518 | -74.13412 | 8981 ft | 108 kts | 46° |
| 2025-10-09 11:55 | 4.70732 | -74.12683 | 9419 ft | 100 kts | 32° |
| 2025-10-09 11:55 | 4.71901 | -74.11832 | 9707 ft | 109 kts | 38° |
| 2025-10-09 11:56 | 4.73812 | -74.10307 | 10136 ft | 125 kts | 39° |
| 2025-10-09 11:56 | 4.74508 | -74.09749 | 10276 ft | 131 kts | 39° |
| 2025-10-09 11:57 | 4.75983 | -74.08564 | 10548 ft | 140 kts | 39° |
| 2025-10-09 11:57 | 4.77544 | -74.07311 | 10811 ft | 146 kts | 39° |
| 2025-10-09 11:58 | 4.79316 | -74.06294 | 11065 ft | 149 kts | 22° |
| 2025-10-09 11:58 | 4.81293 | -74.05594 | 11321 ft | 152 kts | 18° |
| 2025-10-09 11:59 | 4.83325 | -74.04922 | 11497 ft | 158 kts | 18° |
| 2025-10-09 12:00 | 4.86649 | -74.03799 | 11505 ft | 176 kts | 19° |
| 2025-10-09 12:00 | 4.87823 | -74.03400 | 11503 ft | 179 kts | 19° |
| 2025-10-09 12:00 | 4.90226 | -74.02585 | 11502 ft | 184 kts | 19° |
| 2025-10-09 12:01 | 4.92634 | -74.01768 | 11645 ft | 179 kts | 19° |
| 2025-10-09 12:01 | 4.94915 | -74.00996 | 11932 ft | 169 kts | 19° |
| 2025-10-09 12:02 | 4.97168 | -74.00232 | 12004 ft | 174 kts | 19° |
| 2025-10-09 12:02 | 4.99393 | -73.99479 | 12316 ft | 163 kts | 19° |
| 2025-10-09 12:03 | 5.01491 | -73.98790 | 12650 ft | 154 kts | 17° |
| 2025-10-09 12:03 | 5.02512 | -73.98504 | 12812 ft | 151 kts | 15° |
| 2025-10-09 12:04 | 5.05602 | -73.97715 | 13007 ft | 161 kts | 14° |
| 2025-10-09 12:04 | 5.07849 | -73.97154 | 13005 ft | 171 kts | 14° |
| 2025-10-09 12:05 | 5.10203 | -73.96567 | 13003 ft | 177 kts | 14° |
| 2025-10-09 12:05 | 5.12624 | -73.95963 | 13002 ft | 181 kts | 14° |
| 2025-10-09 12:06 | 5.15087 | -73.95350 | 13001 ft | 183 kts | 14° |
| 2025-10-09 12:06 | 5.16327 | -73.95041 | 13001 ft | 184 kts | 14° |
| 2025-10-09 12:07 | 5.20076 | -73.94108 | 13000 ft | 185 kts | 14° |
| 2025-10-09 12:07 | 5.21332 | -73.93796 | 13000 ft | 186 kts | 14° |
| 2025-10-09 12:08 | 5.25103 | -73.92858 | 13000 ft | 186 kts | 14° |
| 2025-10-09 12:08 | 5.27618 | -73.92228 | 13000 ft | 186 kts | 14° |
| 2025-10-09 12:09 | 5.30111 | -73.91604 | 13000 ft | 186 kts | 14° |
| 2025-10-09 12:09 | 5.32635 | -73.90975 | 13000 ft | 186 kts | 14° |
| 2025-10-09 12:10 | 5.35153 | -73.90347 | 13000 ft | 186 kts | 14° |
| 2025-10-09 12:10 | 5.37669 | -73.89720 | 13000 ft | 186 kts | 14° |
| 2025-10-09 12:11 | 5.38928 | -73.89406 | 13000 ft | 186 kts | 14° |
| 2025-10-09 12:11 | 5.42702 | -73.88466 | 13000 ft | 186 kts | 14° |
| 2025-10-09 12:12 | 5.45218 | -73.87840 | 13000 ft | 186 kts | 14° |
| 2025-10-09 12:12 | 5.47723 | -73.87216 | 13000 ft | 186 kts | 14° |
| 2025-10-09 12:13 | 5.50240 | -73.86591 | 13000 ft | 186 kts | 14° |
| 2025-10-09 12:13 | 5.52733 | -73.85887 | 12999 ft | 186 kts | 20° |
| 2025-10-09 12:14 | 5.55069 | -73.84762 | 13001 ft | 186 kts | 28° |
| 2025-10-09 12:14 | 5.57339 | -73.83508 | 13000 ft | 186 kts | 29° |
| 2025-10-09 12:15 | 5.59601 | -73.82230 | 13000 ft | 186 kts | 29° |
| 2025-10-09 12:15 | 5.60732 | -73.81589 | 13000 ft | 186 kts | 29° |
| 2025-10-09 12:16 | 5.64121 | -73.79669 | 13000 ft | 186 kts | 29° |
| 2025-10-09 12:16 | 5.66380 | -73.78389 | 13000 ft | 186 kts | 29° |
| 2025-10-09 12:17 | 5.68637 | -73.77111 | 13000 ft | 186 kts | 29° |
| 2025-10-09 12:17 | 5.70894 | -73.75833 | 13000 ft | 186 kts | 29° |
| 2025-10-09 12:18 | 5.73153 | -73.74554 | 13000 ft | 186 kts | 29° |
| 2025-10-09 12:18 | 5.75409 | -73.73276 | 13000 ft | 186 kts | 29° |
| 2025-10-09 12:19 | 5.76538 | -73.72637 | 13000 ft | 186 kts | 29° |
| 2025-10-09 12:19 | 5.78778 | -73.71368 | 13000 ft | 186 kts | 29° |
| 2025-10-09 12:20 | 5.82166 | -73.69450 | 13000 ft | 186 kts | 29° |
| 2025-10-09 12:20 | 5.84425 | -73.68171 | 13000 ft | 186 kts | 29° |
| 2025-10-09 12:21 | 5.86681 | -73.66893 | 13000 ft | 186 kts | 29° |
| 2025-10-09 12:21 | 5.87810 | -73.66254 | 13000 ft | 186 kts | 29° |
| 2025-10-09 12:22 | 5.91200 | -73.64336 | 13000 ft | 186 kts | 29° |
| 2025-10-09 12:22 | 5.93444 | -73.63068 | 13000 ft | 186 kts | 29° |
| 2025-10-09 12:23 | 5.95700 | -73.61790 | 13000 ft | 186 kts | 30° |
| 2025-10-09 12:24 | 5.98924 | -73.59604 | 13000 ft | 186 kts | 35° |
| 2025-10-09 12:24 | 6.01030 | -73.58090 | 13000 ft | 186 kts | 36° |
| 2025-10-09 12:24 | 6.02083 | -73.57330 | 13000 ft | 186 kts | 36° |
| 2025-10-09 12:25 | 6.04187 | -73.55811 | 13000 ft | 186 kts | 36° |
| 2025-10-09 12:25 | 6.06294 | -73.54290 | 13000 ft | 186 kts | 36° |
| 2025-10-09 12:26 | 6.08399 | -73.52770 | 13000 ft | 186 kts | 36° |
| 2025-10-09 12:26 | 6.10506 | -73.51249 | 13000 ft | 186 kts | 36° |
| 2025-10-09 12:27 | 6.12611 | -73.49730 | 13000 ft | 186 kts | 36° |
| 2025-10-09 12:28 | 6.15769 | -73.47450 | 13000 ft | 186 kts | 36° |
| 2025-10-09 12:28 | 6.17860 | -73.45940 | 13000 ft | 186 kts | 36° |
| 2025-10-09 12:28 | 6.18914 | -73.45179 | 13000 ft | 186 kts | 36° |
| 2025-10-09 12:29 | 6.21023 | -73.43656 | 13000 ft | 186 kts | 36° |
| 2025-10-09 12:29 | 6.23131 | -73.42133 | 13000 ft | 186 kts | 36° |
| 2025-10-09 12:30 | 6.25237 | -73.40612 | 13000 ft | 186 kts | 36° |
| 2025-10-09 12:30 | 6.26291 | -73.39851 | 13000 ft | 186 kts | 36° |
| 2025-10-09 12:31 | 6.29451 | -73.37568 | 13000 ft | 186 kts | 36° |
| 2025-10-09 12:32 | 6.32601 | -73.35292 | 13000 ft | 186 kts | 36° |
| 2025-10-09 12:32 | 6.34709 | -73.33769 | 13000 ft | 186 kts | 36° |
| 2025-10-09 12:32 | 6.35763 | -73.33007 | 13000 ft | 186 kts | 36° |
| 2025-10-09 12:33 | 6.37873 | -73.31482 | 13000 ft | 186 kts | 36° |
| 2025-10-09 12:33 | 6.39980 | -73.29959 | 13000 ft | 186 kts | 36° |
| 2025-10-09 12:34 | 6.41730 | -73.28694 | 13000 ft | 186 kts | 36° |
| 2025-10-09 12:34 | 6.43835 | -73.27172 | 13000 ft | 186 kts | 36° |
| 2025-10-09 12:35 | 6.45945 | -73.25647 | 13000 ft | 186 kts | 36° |
| 2025-10-09 12:36 | 6.49095 | -73.23369 | 13000 ft | 186 kts | 36° |
| 2025-10-09 12:36 | 6.50152 | -73.22604 | 13000 ft | 187 kts | 36° |
| 2025-10-09 12:36 | 6.52262 | -73.21078 | 13000 ft | 187 kts | 36° |
| 2025-10-09 12:37 | 6.54370 | -73.19554 | 13000 ft | 187 kts | 36° |
| 2025-10-09 12:37 | 6.56464 | -73.18039 | 13000 ft | 187 kts | 36° |
| 2025-10-09 12:38 | 6.58572 | -73.16514 | 13000 ft | 187 kts | 36° |
| 2025-10-09 12:38 | 6.60681 | -73.14988 | 13000 ft | 187 kts | 36° |
| 2025-10-09 12:39 | 6.62794 | -73.13458 | 13000 ft | 187 kts | 36° |
| 2025-10-09 12:40 | 6.65941 | -73.11181 | 13000 ft | 187 kts | 36° |
| 2025-10-09 12:40 | 6.66990 | -73.10422 | 13000 ft | 187 kts | 36° |
| 2025-10-09 12:40 | 6.69106 | -73.08890 | 13000 ft | 187 kts | 36° |
| 2025-10-09 12:41 | 6.71213 | -73.07365 | 13000 ft | 187 kts | 36° |
| 2025-10-09 12:41 | 6.73324 | -73.05837 | 13000 ft | 187 kts | 36° |
| 2025-10-09 12:42 | 6.75433 | -73.04309 | 13000 ft | 187 kts | 36° |
| 2025-10-09 12:42 | 6.77531 | -73.02790 | 13000 ft | 187 kts | 36° |
| 2025-10-09 12:43 | 6.79638 | -73.01264 | 13000 ft | 187 kts | 36° |
| 2025-10-09 12:43 | 6.80694 | -73.00499 | 13000 ft | 187 kts | 36° |
| 2025-10-09 12:44 | 6.83860 | -72.98206 | 13000 ft | 187 kts | 36° |
| 2025-10-09 12:44 | 6.85967 | -72.96679 | 13000 ft | 187 kts | 36° |
| 2025-10-09 12:45 | 6.88067 | -72.95158 | 13000 ft | 187 kts | 36° |
| 2025-10-09 12:45 | 6.90179 | -72.93627 | 13000 ft | 187 kts | 36° |
| 2025-10-09 12:46 | 6.92277 | -72.92107 | 13000 ft | 187 kts | 36° |
| 2025-10-09 12:46 | 6.94385 | -72.90579 | 13000 ft | 187 kts | 36° |
| 2025-10-09 12:47 | 6.96496 | -72.89049 | 13000 ft | 187 kts | 36° |
| 2025-10-09 12:47 | 6.97550 | -72.88285 | 13000 ft | 187 kts | 36° |
| 2025-10-09 12:48 | 7.00709 | -72.85995 | 13000 ft | 187 kts | 36° |
| 2025-10-09 12:48 | 7.02817 | -72.84467 | 13000 ft | 187 kts | 36° |
| 2025-10-09 12:49 | 7.04889 | -72.82965 | 13285 ft | 169 kts | 36° |
| 2025-10-09 12:49 | 7.06560 | -72.81770 | 14090 ft | 127 kts | 35° |
| 2025-10-09 12:50 | 7.07768 | -72.80929 | 14725 ft | 91 kts | 34° |
| 2025-10-09 12:50 | 7.08889 | -72.80136 | 14933 ft | 93 kts | 36° |
| 2025-10-09 12:51 | 7.10003 | -72.79331 | 15137 ft | 96 kts | 36° |
| 2025-10-09 12:51 | 7.10557 | -72.78930 | 15210 ft | 101 kts | 36° |
| 2025-10-09 12:52 | 7.12322 | -72.77646 | 15428 ft | 115 kts | 36° |
| 2025-10-09 12:52 | 7.13760 | -72.76593 | 15426 ft | 140 kts | 36° |
| 2025-10-09 12:53 | 7.15422 | -72.75372 | 15411 ft | 156 kts | 36° |
| 2025-10-09 12:53 | 7.17242 | -72.74039 | 15405 ft | 166 kts | 36° |
| 2025-10-09 12:54 | 7.19151 | -72.72644 | 15403 ft | 172 kts | 36° |
| 2025-10-09 12:54 | 7.21130 | -72.71201 | 15402 ft | 176 kts | 36° |
| 2025-10-09 12:55 | 7.22127 | -72.70475 | 15401 ft | 177 kts | 36° |
| 2025-10-09 12:55 | 7.24127 | -72.69021 | 15401 ft | 179 kts | 36° |
| 2025-10-09 12:56 | 7.27172 | -72.66808 | 15400 ft | 180 kts | 36° |
| 2025-10-09 12:56 | 7.29214 | -72.65325 | 15400 ft | 181 kts | 36° |
| 2025-10-09 12:57 | 7.31251 | -72.63846 | 15400 ft | 181 kts | 36° |
| 2025-10-09 12:57 | 7.33305 | -72.62355 | 15400 ft | 182 kts | 36° |
| 2025-10-09 12:58 | 7.34332 | -72.61609 | 15400 ft | 182 kts | 36° |
| 2025-10-09 12:58 | 7.36377 | -72.60126 | 15400 ft | 182 kts | 36° |
| 2025-10-09 12:59 | 7.38427 | -72.58639 | 15400 ft | 182 kts | 36° |
| 2025-10-09 12:59 | 7.40488 | -72.57144 | 15400 ft | 182 kts | 36° |
| 2025-10-09 13:00 | 7.43568 | -72.54913 | 15400 ft | 182 kts | 36° |
| 2025-10-09 13:00 | 7.45634 | -72.53419 | 15400 ft | 182 kts | 36° |
| 2025-10-09 13:01 | 7.47681 | -72.51943 | 15400 ft | 182 kts | 36° |
| 2025-10-09 13:01 | 7.49735 | -72.50445 | 15399 ft | 182 kts | 38° |
| 2025-10-09 13:02 | 7.50676 | -72.49592 | 15401 ft | 182 kts | 43° |
| 2025-10-09 13:02 | 7.52458 | -72.47773 | 15400 ft | 182 kts | 46° |
| 2025-10-09 13:03 | 7.54206 | -72.45928 | 15400 ft | 182 kts | 46° |
| 2025-10-09 13:03 | 7.55954 | -72.44083 | 15400 ft | 182 kts | 46° |
| 2025-10-09 13:04 | 7.58583 | -72.41310 | 15400 ft | 182 kts | 46° |
| 2025-10-09 13:04 | 7.60329 | -72.39469 | 15400 ft | 182 kts | 46° |
| 2025-10-09 13:05 | 7.62083 | -72.37621 | 15400 ft | 182 kts | 46° |
| 2025-10-09 13:05 | 7.62958 | -72.36698 | 15400 ft | 182 kts | 46° |
| 2025-10-09 13:06 | 7.65587 | -72.33927 | 15400 ft | 182 kts | 46° |
| 2025-10-09 13:06 | 7.66466 | -72.33000 | 15400 ft | 182 kts | 46° |
| 2025-10-09 13:07 | 7.68209 | -72.31164 | 15400 ft | 182 kts | 46° |
| 2025-10-09 13:07 | 7.69964 | -72.29313 | 15400 ft | 182 kts | 46° |
| 2025-10-09 13:08 | 7.72593 | -72.26541 | 15400 ft | 182 kts | 46° |
| 2025-10-09 13:08 | 7.74347 | -72.24690 | 15400 ft | 182 kts | 46° |
| 2025-10-09 13:09 | 7.76099 | -72.22842 | 15400 ft | 182 kts | 46° |
| 2025-10-09 13:09 | 7.76970 | -72.21924 | 15400 ft | 182 kts | 46° |
| 2025-10-09 13:10 | 7.78722 | -72.20075 | 15400 ft | 182 kts | 46° |
| 2025-10-09 13:10 | 7.80477 | -72.18223 | 15400 ft | 182 kts | 46° |
| 2025-10-09 13:11 | 7.82233 | -72.16371 | 15400 ft | 182 kts | 46° |
| 2025-10-09 13:11 | 7.83982 | -72.14525 | 15400 ft | 182 kts | 46° |
| 2025-10-09 13:12 | 7.86612 | -72.11749 | 15400 ft | 182 kts | 46° |
| 2025-10-09 13:12 | 7.88370 | -72.09892 | 15400 ft | 182 kts | 46° |
| 2025-10-09 13:13 | 7.89236 | -72.08978 | 15400 ft | 182 kts | 46° |
| 2025-10-09 13:13 | 7.90992 | -72.07124 | 15400 ft | 182 kts | 46° |
| 2025-10-09 13:14 | 7.92747 | -72.05271 | 15400 ft | 182 kts | 46° |
| 2025-10-09 13:14 | 7.94501 | -72.03418 | 15400 ft | 182 kts | 46° |
| 2025-10-09 13:15 | 7.96257 | -72.01563 | 15400 ft | 183 kts | 46° |
| 2025-10-09 13:15 | 7.98000 | -71.99722 | 15400 ft | 183 kts | 46° |
| 2025-10-09 13:16 | 8.00631 | -71.96942 | 15400 ft | 183 kts | 46° |
| 2025-10-09 13:16 | 8.02386 | -71.95088 | 15400 ft | 183 kts | 46° |
| 2025-10-09 13:17 | 8.04138 | -71.93235 | 15400 ft | 183 kts | 46° |
| 2025-10-09 13:17 | 8.05899 | -71.91374 | 15400 ft | 183 kts | 46° |
| 2025-10-09 13:18 | 8.07643 | -71.89532 | 15400 ft | 183 kts | 46° |
| 2025-10-09 13:18 | 8.09401 | -71.87672 | 15400 ft | 183 kts | 46° |
| 2025-10-09 13:19 | 8.10281 | -71.86742 | 15400 ft | 183 kts | 46° |
| 2025-10-09 13:20 | 8.13780 | -71.83042 | 15400 ft | 183 kts | 46° |
| 2025-10-09 13:20 | 8.15538 | -71.81183 | 15400 ft | 183 kts | 46° |
| 2025-10-09 13:21 | 8.17293 | -71.79326 | 15400 ft | 183 kts | 46° |
| 2025-10-09 13:21 | 8.17874 | -71.78713 | 15400 ft | 183 kts | 46° |
| 2025-10-09 13:21 | 8.19924 | -71.76544 | 15400 ft | 183 kts | 46° |
| 2025-10-09 13:22 | 8.21381 | -71.75002 | 15400 ft | 183 kts | 46° |
| 2025-10-09 13:22 | 8.23423 | -71.72842 | 15400 ft | 183 kts | 46° |
| 2025-10-09 13:23 | 8.24895 | -71.71284 | 15400 ft | 183 kts | 46° |
| 2025-10-09 13:24 | 8.27517 | -71.68510 | 15400 ft | 183 kts | 46° |
| 2025-10-09 13:24 | 8.29276 | -71.66650 | 15400 ft | 183 kts | 46° |
| 2025-10-09 13:24 | 8.30152 | -71.65722 | 15400 ft | 183 kts | 46° |
| 2025-10-09 13:25 | 8.31908 | -71.63865 | 15400 ft | 183 kts | 46° |
| 2025-10-09 13:25 | 8.33666 | -71.62005 | 15400 ft | 183 kts | 46° |
| 2025-10-09 13:26 | 8.35423 | -71.60147 | 15400 ft | 183 kts | 46° |
| 2025-10-09 13:26 | 8.37168 | -71.58302 | 15400 ft | 183 kts | 46° |
| 2025-10-09 13:27 | 8.38925 | -71.56446 | 15400 ft | 183 kts | 46° |
| 2025-10-09 13:28 | 8.41104 | -71.54145 | 15400 ft | 183 kts | 46° |
| 2025-10-09 13:28 | 8.41664 | -71.53551 | 15400 ft | 183 kts | 47° |
| 2025-10-09 13:29 | 8.41903 | -71.53258 | 15392 ft | 183 kts | 51° |
| 2025-10-09 13:29 | 8.42289 | -71.52292 | 15381 ft | 182 kts | 78° |
| 2025-10-09 13:30 | 8.42005 | -71.49809 | 15410 ft | 180 kts | 102° |
| 2025-10-09 13:30 | 8.41395 | -71.47136 | 15401 ft | 182 kts | 103° |
| 2025-10-09 13:31 | 8.40827 | -71.44642 | 15400 ft | 182 kts | 103° |
| 2025-10-09 13:32 | 8.40008 | -71.40889 | 15400 ft | 183 kts | 102° |
| 2025-10-09 13:32 | 8.39744 | -71.39634 | 15400 ft | 183 kts | 102° |
| 2025-10-09 13:32 | 8.39234 | -71.37135 | 15400 ft | 183 kts | 101° |
| 2025-10-09 13:33 | 8.38740 | -71.34613 | 15400 ft | 183 kts | 101° |
| 2025-10-09 13:33 | 8.38267 | -71.32090 | 15400 ft | 183 kts | 100° |
| 2025-10-09 13:34 | 8.37815 | -71.29559 | 15400 ft | 183 kts | 100° |
| 2025-10-09 13:34 | 8.37384 | -71.27026 | 15400 ft | 183 kts | 99° |
| 2025-10-09 13:35 | 8.36975 | -71.24490 | 15400 ft | 183 kts | 99° |
| 2025-10-09 13:36 | 8.36404 | -71.20675 | 15400 ft | 183 kts | 98° |
| 2025-10-09 13:36 | 8.36226 | -71.19403 | 15400 ft | 183 kts | 98° |
| 2025-10-09 13:37 | 8.35726 | -71.15577 | 15400 ft | 183 kts | 97° |
| 2025-10-09 13:37 | 8.35572 | -71.14300 | 15400 ft | 183 kts | 97° |
| 2025-10-09 13:37 | 8.35283 | -71.11745 | 15400 ft | 183 kts | 96° |
| 2025-10-09 13:38 | 8.35019 | -71.09187 | 15400 ft | 183 kts | 96° |
| 2025-10-09 13:38 | 8.34782 | -71.06626 | 15400 ft | 183 kts | 95° |
| 2025-10-09 13:39 | 8.34675 | -71.05358 | 15400 ft | 183 kts | 95° |
| 2025-10-09 13:40 | 8.34312 | -71.00217 | 15329 ft | 187 kts | 93° |
| 2025-10-09 13:40 | 8.34236 | -70.98880 | 15184 ft | 194 kts | 93° |
| 2025-10-09 13:40 | 8.34106 | -70.96131 | 15010 ft | 196 kts | 92° |
| 2025-10-09 13:41 | 8.34012 | -70.93412 | 14998 ft | 191 kts | 91° |
| 2025-10-09 13:41 | 8.33956 | -70.90761 | 14999 ft | 188 kts | 91° |
| 2025-10-09 13:42 | 8.33935 | -70.88150 | 14999 ft | 186 kts | 90° |
| 2025-10-09 13:42 | 8.33939 | -70.86839 | 15000 ft | 185 kts | 90° |
| 2025-10-09 13:43 | 8.34002 | -70.82947 | 15000 ft | 185 kts | 88° |
| 2025-10-09 13:43 | 8.34042 | -70.81663 | 15000 ft | 184 kts | 88° |
| 2025-10-09 13:44 | 8.34219 | -70.77782 | 15000 ft | 184 kts | 86° |
| 2025-10-09 13:44 | 8.34388 | -70.75189 | 15000 ft | 184 kts | 86° |
| 2025-10-09 13:45 | 8.34597 | -70.72630 | 15000 ft | 184 kts | 85° |
| 2025-10-09 13:45 | 8.34852 | -70.70044 | 15000 ft | 184 kts | 84° |
| 2025-10-09 13:46 | 8.34996 | -70.68760 | 15000 ft | 184 kts | 83° |
| 2025-10-09 13:46 | 8.35499 | -70.64913 | 15000 ft | 184 kts | 82° |
| 2025-10-09 13:47 | 8.35691 | -70.63634 | 15000 ft | 184 kts | 81° |
| 2025-10-09 13:47 | 8.36114 | -70.61083 | 15000 ft | 184 kts | 80° |
| 2025-10-09 13:48 | 8.36760 | -70.57700 | 15000 ft | 184 kts | 78° |
| 2025-10-09 13:48 | 8.37312 | -70.55174 | 15000 ft | 184 kts | 77° |
| 2025-10-09 13:49 | 8.38031 | -70.52248 | 15000 ft | 184 kts | 75° |
| 2025-10-09 13:49 | 8.38597 | -70.50175 | 15000 ft | 184 kts | 74° |
| 2025-10-09 13:50 | 8.39341 | -70.47696 | 15000 ft | 184 kts | 72° |
| 2025-10-09 13:50 | 8.40170 | -70.45246 | 14999 ft | 184 kts | 69° |
| 2025-10-09 13:51 | 8.40711 | -70.44076 | 14999 ft | 184 kts | 63° |
| 2025-10-09 13:51 | 8.42144 | -70.41932 | 15001 ft | 184 kts | 52° |
| 2025-10-09 13:52 | 8.44711 | -70.39046 | 15000 ft | 184 kts | 46° |
| 2025-10-09 13:52 | 8.46506 | -70.37194 | 15000 ft | 184 kts | 45° |
| 2025-10-09 13:53 | 8.48314 | -70.35357 | 15000 ft | 184 kts | 45° |
| 2025-10-09 13:53 | 8.50126 | -70.33521 | 15000 ft | 184 kts | 45° |
| 2025-10-09 13:54 | 8.51939 | -70.31686 | 15000 ft | 184 kts | 45° |
| 2025-10-09 13:54 | 8.53740 | -70.29866 | 15000 ft | 184 kts | 45° |
| 2025-10-09 13:55 | 8.55557 | -70.28032 | 15000 ft | 184 kts | 45° |
| 2025-10-09 13:55 | 8.57375 | -70.26204 | 15000 ft | 184 kts | 45° |
| 2025-10-09 13:56 | 8.59200 | -70.24380 | 15000 ft | 184 kts | 44° |
| 2025-10-09 13:56 | 8.61026 | -70.22556 | 15000 ft | 184 kts | 46° |
| 2025-10-09 13:57 | 8.62726 | -70.20607 | 15000 ft | 184 kts | 49° |
| 2025-10-09 13:57 | 8.64394 | -70.18656 | 15000 ft | 184 kts | 49° |
| 2025-10-09 13:58 | 8.66087 | -70.16700 | 15000 ft | 184 kts | 49° |
| 2025-10-09 13:58 | 8.67783 | -70.14756 | 15000 ft | 184 kts | 49° |
| 2025-10-09 13:59 | 8.68634 | -70.13783 | 15000 ft | 184 kts | 49° |
| 2025-10-09 13:59 | 8.70336 | -70.11839 | 15000 ft | 184 kts | 48° |
| 2025-10-09 14:00 | 8.72890 | -70.08924 | 15000 ft | 184 kts | 48° |
| 2025-10-09 14:00 | 8.74593 | -70.06981 | 15000 ft | 184 kts | 48° |
| 2025-10-09 14:01 | 8.76295 | -70.05039 | 15000 ft | 184 kts | 48° |
| 2025-10-09 14:01 | 8.77999 | -70.03094 | 15000 ft | 185 kts | 48° |
| 2025-10-09 14:02 | 8.79702 | -70.01150 | 15000 ft | 185 kts | 48° |
| 2025-10-09 14:02 | 8.80552 | -70.00178 | 15000 ft | 185 kts | 48° |
| 2025-10-09 14:03 | 8.82255 | -69.98234 | 15000 ft | 185 kts | 48° |
| 2025-10-09 14:03 | 8.84807 | -69.95320 | 15000 ft | 185 kts | 48° |
| 2025-10-09 14:04 | 8.87361 | -69.92402 | 15000 ft | 185 kts | 48° |
| 2025-10-09 14:04 | 8.88214 | -69.91428 | 15000 ft | 185 kts | 48° |
| 2025-10-09 14:05 | 8.89906 | -69.89494 | 15000 ft | 185 kts | 48° |
| 2025-10-09 14:05 | 8.91608 | -69.87549 | 15000 ft | 185 kts | 49° |
| 2025-10-09 14:06 | 8.93309 | -69.85604 | 15000 ft | 185 kts | 49° |
| 2025-10-09 14:06 | 8.94160 | -69.84632 | 15000 ft | 185 kts | 49° |
| 2025-10-09 14:07 | 8.95863 | -69.82685 | 15000 ft | 185 kts | 49° |
| 2025-10-09 14:07 | 8.97565 | -69.80739 | 15000 ft | 185 kts | 49° |
| 2025-10-09 14:08 | 9.00118 | -69.77819 | 15000 ft | 185 kts | 49° |
| 2025-10-09 14:08 | 9.01777 | -69.75923 | 15000 ft | 185 kts | 49° |
| 2025-10-09 14:09 | 9.03486 | -69.73968 | 15000 ft | 185 kts | 49° |
| 2025-10-09 14:09 | 9.05187 | -69.72021 | 15000 ft | 185 kts | 49° |
| 2025-10-09 14:10 | 9.06880 | -69.70084 | 15000 ft | 185 kts | 49° |
| 2025-10-09 14:10 | 9.07730 | -69.69111 | 15000 ft | 185 kts | 49° |
| 2025-10-09 14:11 | 9.09433 | -69.67162 | 15000 ft | 185 kts | 49° |
| 2025-10-09 14:11 | 9.11141 | -69.65207 | 15000 ft | 185 kts | 49° |
| 2025-10-09 14:12 | 9.13694 | -69.62284 | 15000 ft | 185 kts | 49° |
| 2025-10-09 14:12 | 9.15385 | -69.60347 | 15000 ft | 185 kts | 49° |
| 2025-10-09 14:13 | 9.17089 | -69.58397 | 15000 ft | 185 kts | 49° |
| 2025-10-09 14:13 | 9.18793 | -69.56445 | 15000 ft | 185 kts | 49° |
| 2025-10-09 14:14 | 9.20496 | -69.54494 | 15000 ft | 185 kts | 49° |
| 2025-10-09 14:14 | 9.22198 | -69.52544 | 15000 ft | 185 kts | 49° |
| 2025-10-09 14:15 | 9.23895 | -69.50599 | 15000 ft | 185 kts | 49° |
| 2025-10-09 14:15 | 9.25600 | -69.48646 | 15000 ft | 185 kts | 49° |
| 2025-10-09 14:16 | 9.27301 | -69.46697 | 15000 ft | 185 kts | 49° |
| 2025-10-09 14:16 | 9.29002 | -69.44747 | 15000 ft | 185 kts | 49° |
| 2025-10-09 14:17 | 9.30706 | -69.42794 | 15000 ft | 185 kts | 49° |
| 2025-10-09 14:17 | 9.32408 | -69.40843 | 15000 ft | 185 kts | 49° |
| 2025-10-09 14:18 | 9.34100 | -69.38903 | 15000 ft | 185 kts | 49° |
| 2025-10-09 14:18 | 9.35806 | -69.36946 | 15000 ft | 185 kts | 49° |
| 2025-10-09 14:19 | 9.36286 | -69.36396 | 15000 ft | 185 kts | 49° |
| 2025-10-09 14:21 | 9.36622 | -69.36011 | 15000 ft | 185 kts | 49° |
| 2025-10-09 14:21 | 9.38329 | -69.34054 | 15000 ft | 185 kts | 49° |
| 2025-10-09 14:22 | 9.39950 | -69.32195 | 15000 ft | 185 kts | 49° |
| 2025-10-09 14:22 | 9.40802 | -69.31217 | 15000 ft | 185 kts | 49° |
| 2025-10-09 14:23 | 9.43370 | -69.28273 | 15000 ft | 185 kts | 49° |
| 2025-10-09 14:23 | 9.45076 | -69.26317 | 15000 ft | 185 kts | 49° |
| 2025-10-09 14:24 | 9.46769 | -69.24376 | 15000 ft | 185 kts | 49° |
| 2025-10-09 14:24 | 9.48473 | -69.22422 | 15000 ft | 185 kts | 49° |
| 2025-10-09 14:25 | 9.50175 | -69.20472 | 15000 ft | 185 kts | 49° |
| 2025-10-09 14:25 | 9.51882 | -69.18517 | 15000 ft | 185 kts | 49° |
| 2025-10-09 14:26 | 9.53583 | -69.16570 | 15000 ft | 185 kts | 48° |
| 2025-10-09 14:26 | 9.54437 | -69.15593 | 15000 ft | 185 kts | 48° |
| 2025-10-09 14:27 | 9.56093 | -69.13701 | 15000 ft | 185 kts | 48° |
| 2025-10-09 14:27 | 9.57804 | -69.11750 | 15000 ft | 185 kts | 48° |
| 2025-10-09 14:28 | 9.59517 | -69.09803 | 15000 ft | 185 kts | 48° |
| 2025-10-09 14:28 | 9.61238 | -69.07860 | 15000 ft | 185 kts | 48° |
| 2025-10-09 14:29 | 9.62974 | -69.05938 | 15000 ft | 185 kts | 47° |
| 2025-10-09 14:29 | 9.64647 | -69.03952 | 15000 ft | 185 kts | 50° |
| 2025-10-09 14:30 | 9.65459 | -69.02968 | 15000 ft | 185 kts | 50° |
| 2025-10-09 14:30 | 9.67129 | -69.00982 | 15000 ft | 185 kts | 49° |
| 2025-10-09 14:31 | 9.69669 | -68.98032 | 15000 ft | 185 kts | 49° |
| 2025-10-09 14:31 | 9.71365 | -68.96078 | 15000 ft | 185 kts | 49° |
| 2025-10-09 14:32 | 9.73067 | -68.94121 | 15000 ft | 185 kts | 49° |
| 2025-10-09 14:32 | 9.74770 | -68.92164 | 15000 ft | 185 kts | 49° |
| 2025-10-09 14:33 | 9.76473 | -68.90205 | 15000 ft | 185 kts | 49° |
| 2025-10-09 14:33 | 9.77330 | -68.89221 | 15000 ft | 185 kts | 49° |
| 2025-10-09 14:34 | 9.79033 | -68.87264 | 15000 ft | 185 kts | 49° |
| 2025-10-09 14:34 | 9.81589 | -68.84326 | 15000 ft | 185 kts | 49° |
| 2025-10-09 14:35 | 9.83284 | -68.82377 | 15000 ft | 185 kts | 49° |
| 2025-10-09 14:35 | 9.84988 | -68.80419 | 15000 ft | 185 kts | 49° |
| 2025-10-09 14:36 | 9.86693 | -68.78460 | 15000 ft | 185 kts | 49° |
| 2025-10-09 14:36 | 9.88404 | -68.76495 | 15000 ft | 185 kts | 49° |
| 2025-10-09 14:37 | 9.90138 | -68.74502 | 14817 ft | 194 kts | 49° |
| 2025-10-09 14:37 | 9.91967 | -68.72382 | 14489 ft | 204 kts | 49° |
| 2025-10-09 14:38 | 9.92908 | -68.71289 | 14323 ft | 207 kts | 49° |
| 2025-10-09 14:38 | 9.94807 | -68.69092 | 14050 ft | 207 kts | 49° |
| 2025-10-09 14:39 | 9.97621 | -68.65886 | 13867 ft | 203 kts | 48° |
| 2025-10-09 14:39 | 9.99216 | -68.64087 | 13580 ft | 208 kts | 48° |
| 2025-10-09 14:40 | 10.01182 | -68.61894 | 13234 ft | 211 kts | 47° |
| 2025-10-09 14:40 | 10.03089 | -68.59646 | 13016 ft | 207 kts | 50° |
| 2025-10-09 14:41 | 10.04914 | -68.57435 | 12998 ft | 199 kts | 50° |
| 2025-10-09 14:41 | 10.05797 | -68.56391 | 12998 ft | 196 kts | 49° |
| 2025-10-09 14:42 | 10.07575 | -68.54326 | 12999 ft | 193 kts | 49° |
| 2025-10-09 14:42 | 10.09344 | -68.52295 | 12999 ft | 191 kts | 48° |
| 2025-10-09 14:43 | 10.11979 | -68.49276 | 13000 ft | 190 kts | 48° |
| 2025-10-09 14:43 | 10.13729 | -68.47268 | 13000 ft | 189 kts | 49° |
| 2025-10-09 14:44 | 10.15467 | -68.45272 | 13000 ft | 189 kts | 49° |
| 2025-10-09 14:44 | 10.17211 | -68.43268 | 13000 ft | 189 kts | 49° |
| 2025-10-09 14:45 | 10.18954 | -68.41263 | 13000 ft | 189 kts | 49° |
| 2025-10-09 14:45 | 10.19825 | -68.40261 | 13000 ft | 189 kts | 49° |
| 2025-10-09 14:46 | 10.21568 | -68.38255 | 13000 ft | 189 kts | 49° |
| 2025-10-09 14:46 | 10.24180 | -68.35250 | 13000 ft | 189 kts | 49° |
| 2025-10-09 14:47 | 10.25923 | -68.33245 | 13000 ft | 189 kts | 49° |
| 2025-10-09 14:47 | 10.27667 | -68.31239 | 13000 ft | 189 kts | 49° |
| 2025-10-09 14:48 | 10.29410 | -68.29234 | 13000 ft | 189 kts | 49° |
| 2025-10-09 14:48 | 10.31154 | -68.27228 | 13000 ft | 189 kts | 49° |
| 2025-10-09 14:49 | 10.32898 | -68.25222 | 13000 ft | 189 kts | 49° |
| 2025-10-09 14:49 | 10.33770 | -68.24220 | 13000 ft | 189 kts | 49° |
| 2025-10-09 14:50 | 10.36388 | -68.21213 | 13000 ft | 189 kts | 49° |
| 2025-10-09 14:50 | 10.38134 | -68.19209 | 13000 ft | 189 kts | 48° |
| 2025-10-09 14:51 | 10.39881 | -68.17207 | 13000 ft | 189 kts | 48° |
| 2025-10-09 14:51 | 10.41630 | -68.15206 | 13000 ft | 189 kts | 48° |
| 2025-10-09 14:52 | 10.43383 | -68.13209 | 13000 ft | 189 kts | 48° |
| 2025-10-09 14:52 | 10.45143 | -68.11218 | 12997 ft | 190 kts | 48° |
| 2025-10-09 14:53 | 10.46985 | -68.09166 | 12690 ft | 203 kts | 47° |
| 2025-10-09 14:53 | 10.47810 | -68.08022 | 12515 ft | 207 kts | 60° |
| 2025-10-09 14:54 | 10.49088 | -68.03790 | 12024 ft | 211 kts | 77° |
| 2025-10-09 14:54 | 10.49724 | -68.00854 | 11686 ft | 213 kts | 77° |
| 2025-10-09 14:55 | 10.50378 | -67.97915 | 11348 ft | 213 kts | 77° |
| 2025-10-09 14:55 | 10.51057 | -67.94973 | 11010 ft | 214 kts | 77° |
| 2025-10-09 14:56 | 10.51750 | -67.92030 | 10672 ft | 214 kts | 76° |
| 2025-10-09 14:56 | 10.52449 | -67.89089 | 10335 ft | 214 kts | 76° |
| 2025-10-09 14:57 | 10.52800 | -67.87614 | 10170 ft | 214 kts | 76° |
| 2025-10-09 14:57 | 10.53498 | -67.84703 | 10010 ft | 208 kts | 76° |
| 2025-10-09 14:58 | 10.54182 | -67.81903 | 9999 ft | 201 kts | 76° |
| 2025-10-09 14:58 | 10.55190 | -67.77812 | 10000 ft | 197 kts | 76° |
| 2025-10-09 14:59 | 10.55853 | -67.75113 | 10000 ft | 197 kts | 76° |
| 2025-10-09 14:59 | 10.56514 | -67.72437 | 10000 ft | 196 kts | 76° |
| 2025-10-09 15:00 | 10.57185 | -67.69778 | 10000 ft | 196 kts | 75° |
| 2025-10-09 15:00 | 10.57880 | -67.67017 | 9713 ft | 207 kts | 77° |
| 2025-10-09 15:01 | 10.58289 | -67.64086 | 9392 ft | 212 kts | 83° |
| 2025-10-09 15:01 | 10.58452 | -67.62594 | 9229 ft | 213 kts | 84° |
| 2025-10-09 15:02 | 10.58752 | -67.58075 | 8741 ft | 214 kts | 86° |
| 2025-10-09 15:02 | 10.58928 | -67.55048 | 8416 ft | 215 kts | 86° |
| 2025-10-09 15:03 | 10.59103 | -67.52014 | 8104 ft | 214 kts | 86° |
| 2025-10-09 15:03 | 10.59275 | -67.49036 | 8004 ft | 207 kts | 86° |
| 2025-10-09 15:04 | 10.59441 | -67.46162 | 7999 ft | 201 kts | 86° |
| 2025-10-09 15:04 | 10.59396 | -67.43256 | 7479 ft | 220 kts | 100° |
| 2025-10-09 15:05 | 10.58569 | -67.40252 | 7049 ft | 206 kts | 106° |
| 2025-10-09 15:05 | 10.58241 | -67.38867 | 6718 ft | 202 kts | 102° |
| 2025-10-09 15:06 | 10.57992 | -67.35889 | 5356 ft | 220 kts | 89° |
| 2025-10-09 15:06 | 10.58698 | -67.31379 | 4806 ft | 214 kts | 77° |
| 2025-10-09 15:07 | 10.59355 | -67.28363 | 4207 ft | 221 kts | 79° |
| 2025-10-09 15:07 | 10.59705 | -67.25246 | 3606 ft | 222 kts | 86° |
| 2025-10-09 15:08 | 10.59698 | -67.22118 | 3125 ft | 217 kts | 92° |
| 2025-10-09 15:08 | 10.59631 | -67.19139 | 3005 ft | 205 kts | 90° |
| 2025-10-09 15:09 | 10.59664 | -67.17727 | 3000 ft | 201 kts | 88° |
| 2025-10-09 15:09 | 10.59860 | -67.14934 | 2999 ft | 196 kts | 85° |
| 2025-10-09 15:10 | 10.60083 | -67.12185 | 3000 ft | 194 kts | 86° |
| 2025-10-09 15:10 | 10.60273 | -67.08238 | 2712 ft | 188 kts | 86° |
| 2025-10-09 15:11 | 10.60483 | -67.05506 | 1363 ft | 185 kts | 88° |
| 2025-10-09 15:11 | 10.60473 | -67.03254 | 907 ft | 133 kts | 88° |
| 2025-10-09 15:12 | 10.60624 | -67.01458 | 416 ft | 120 kts | 87° |
| 2025-10-09 15:12 | 10.60685 | -67.00119 | 245 ft | 63 kts | 86° |
| 2025-10-09 15:13 | 10.60708 | -66.99749 | 244 ft | 44 kts | 86° |
| 2025-10-09 15:13 | 10.60634 | -66.99543 | 244 ft | 11 kts | 176° |
| 2025-10-09 15:14 | 10.60494 | -66.99699 | 244 ft | 28 kts | 271° |
| 2025-10-09 15:14 | 10.60438 | -67.00369 | 244 ft | 38 kts | 255° |
| 2025-10-09 15:15 | 10.60246 | -67.00933 | 244 ft | 17 kts | 178° |
| 2025-10-09 15:15 | 10.60190 | -67.00921 | 244 ft | 5 kts | 164° |
| 2025-10-09 15:16 | 10.60183 | -67.00919 | 244 ft | 0 kts | 164° |